sensor_id;sensor_type;location;lat;lon;timestamp;temperature;humidity
29093;DHT22;16167;48.768;14.984;2023-06-22T00:00:33;17.30;94.00
29093;DHT22;16167;48.768;14.984;2023-06-22T00:03:02;17.30;94.00
29093;DHT22;16167;48.768;14.984;2023-06-22T00:05:30;17.30;93.40
29093;DHT22;16167;48.768;14.984;2023-06-22T00:08:01;17.20;93.20
29093;DHT22;16167;48.768;14.984;2023-06-22T00:10:29;17.20;94.30
29093;DHT22;16167;48.768;14.984;2023-06-22T00:12:57;17.20;93.80
29093;DHT22;16167;48.768;14.984;2023-06-22T00:15:25;17.10;94.80
29093;DHT22;16167;48.768;14.984;2023-06-22T00:17:53;17.10;93.90
29093;DHT22;16167;48.768;14.984;2023-06-22T00:20:23;17.00;91.80
29093;DHT22;16167;48.768;14.984;2023-06-22T00:22:55;17.00;92.40
29093;DHT22;16167;48.768;14.984;2023-06-22T00:25:23;17.00;95.00
29093;DHT22;16167;48.768;14.984;2023-06-22T00:27:51;17.00;96.70
29093;DHT22;16167;48.768;14.984;2023-06-22T00:30:19;16.90;93.80
29093;DHT22;16167;48.768;14.984;2023-06-22T00:32:47;16.90;94.00
29093;DHT22;16167;48.768;14.984;2023-06-22T00:35:15;16.90;95.30
29093;DHT22;16167;48.768;14.984;2023-06-22T00:37:45;16.80;94.50
29093;DHT22;16167;48.768;14.984;2023-06-22T00:40:13;16.80;94.80
29093;DHT22;16167;48.768;14.984;2023-06-22T00:42:41;16.80;96.40
29093;DHT22;16167;48.768;14.984;2023-06-22T00:45:09;16.80;97.40
29093;DHT22;16167;48.768;14.984;2023-06-22T00:47:37;16.80;96.00
29093;DHT22;16167;48.768;14.984;2023-06-22T00:50:05;16.80;96.90
29093;DHT22;16167;48.768;14.984;2023-06-22T00:52:35;16.80;97.00
29093;DHT22;16167;48.768;14.984;2023-06-22T00:55:04;16.70;96.50
29093;DHT22;16167;48.768;14.984;2023-06-22T00:57:33;16.70;96.10
29093;DHT22;16167;48.768;14.984;2023-06-22T01:00:04;16.60;95.40
29093;DHT22;16167;48.768;14.984;2023-06-22T01:02:34;16.60;96.00
29093;DHT22;16167;48.768;14.984;2023-06-22T01:05:04;16.60;95.70
29093;DHT22;16167;48.768;14.984;2023-06-22T01:07:35;16.60;96.30
29093;DHT22;16167;48.768;14.984;2023-06-22T01:10:07;16.50;96.40
29093;DHT22;16167;48.768;14.984;2023-06-22T01:12:38;16.60;95.90
29093;DHT22;16167;48.768;14.984;2023-06-22T01:15:08;16.50;99.90
29093;DHT22;16167;48.768;14.984;2023-06-22T01:17:37;16.50;99.90
29093;DHT22;16167;48.768;14.984;2023-06-22T01:20:08;16.50;99.90
29093;DHT22;16167;48.768;14.984;2023-06-22T01:22:42;16.50;99.90
29093;DHT22;16167;48.768;14.984;2023-06-22T01:25:16;16.50;99.90
29093;DHT22;16167;48.768;14.984;2023-06-22T01:27:47;16.40;99.10
29093;DHT22;16167;48.768;14.984;2023-06-22T01:30:19;16.40;98.00
29093;DHT22;16167;48.768;14.984;2023-06-22T01:32:47;16.40;97.50
29093;DHT22;16167;48.768;14.984;2023-06-22T01:35:16;16.30;95.70
29093;DHT22;16167;48.768;14.984;2023-06-22T01:37:44;16.30;96.60
29093;DHT22;16167;48.768;14.984;2023-06-22T01:40:13;16.30;95.50
29093;DHT22;16167;48.768;14.984;2023-06-22T01:42:41;16.30;96.90
29093;DHT22;16167;48.768;14.984;2023-06-22T01:45:10;16.20;96.80
29093;DHT22;16167;48.768;14.984;2023-06-22T01:47:40;16.20;97.70
29093;DHT22;16167;48.768;14.984;2023-06-22T01:50:09;16.20;99.00
29093;DHT22;16167;48.768;14.984;2023-06-22T01:52:37;16.20;97.00
29093;DHT22;16167;48.768;14.984;2023-06-22T01:55:05;16.20;95.80
29093;DHT22;16167;48.768;14.984;2023-06-22T01:57:34;16.10;99.00
29093;DHT22;16167;48.768;14.984;2023-06-22T02:00:04;16.20;99.30
29093;DHT22;16167;48.768;14.984;2023-06-22T02:02:36;16.20;99.90
29093;DHT22;16167;48.768;14.984;2023-06-22T02:05:08;16.20;99.90
29093;DHT22;16167;48.768;14.984;2023-06-22T02:07:39;16.10;99.90
29093;DHT22;16167;48.768;14.984;2023-06-22T02:10:09;16.20;99.90
29093;DHT22;16167;48.768;14.984;2023-06-22T02:12:39;16.10;99.90
29093;DHT22;16167;48.768;14.984;2023-06-22T02:15:08;16.20;99.90
29093;DHT22;16167;48.768;14.984;2023-06-22T02:17:36;16.10;99.90
29093;DHT22;16167;48.768;14.984;2023-06-22T02:20:05;16.10;99.50
29093;DHT22;16167;48.768;14.984;2023-06-22T02:22:36;16.10;99.90
29093;DHT22;16167;48.768;14.984;2023-06-22T02:25:04;16.10;99.90
29093;DHT22;16167;48.768;14.984;2023-06-22T02:27:32;16.10;99.90
29093;DHT22;16167;48.768;14.984;2023-06-22T02:30:00;16.10;99.90
29093;DHT22;16167;48.768;14.984;2023-06-22T02:32:28;16.00;99.90
29093;DHT22;16167;48.768;14.984;2023-06-22T02:34:56;16.00;99.90
29093;DHT22;16167;48.768;14.984;2023-06-22T02:37:24;16.00;99.90
29093;DHT22;16167;48.768;14.984;2023-06-22T02:39:57;16.00;98.90
29093;DHT22;16167;48.768;14.984;2023-06-22T02:42:25;16.00;99.50
29093;DHT22;16167;48.768;14.984;2023-06-22T02:44:53;15.90;98.70
29093;DHT22;16167;48.768;14.984;2023-06-22T02:47:21;15.90;97.40
29093;DHT22;16167;48.768;14.984;2023-06-22T02:49:49;15.80;97.50
29093;DHT22;16167;48.768;14.984;2023-06-22T02:52:17;15.80;98.40
29093;DHT22;16167;48.768;14.984;2023-06-22T02:54:45;15.80;96.70
29093;DHT22;16167;48.768;14.984;2023-06-22T02:57:14;15.80;95.90
29093;DHT22;16167;48.768;14.984;2023-06-22T02:59:42;15.80;99.00
29093;DHT22;16167;48.768;14.984;2023-06-22T03:02:10;15.80;99.90
29093;DHT22;16167;48.768;14.984;2023-06-22T03:04:38;15.80;99.90
29093;DHT22;16167;48.768;14.984;2023-06-22T03:07:06;15.80;99.90
29093;DHT22;16167;48.768;14.984;2023-06-22T03:09:34;15.80;99.50
29093;DHT22;16167;48.768;14.984;2023-06-22T03:12:03;15.80;99.10
29093;DHT22;16167;48.768;14.984;2023-06-22T03:14:32;15.80;98.30
29093;DHT22;16167;48.768;14.984;2023-06-22T03:17:00;15.80;97.60
29093;DHT22;16167;48.768;14.984;2023-06-22T03:19:29;15.70;98.50
29093;DHT22;16167;48.768;14.984;2023-06-22T03:21:59;15.70;97.80
29093;DHT22;16167;48.768;14.984;2023-06-22T03:24:27;15.80;95.30
29093;DHT22;16167;48.768;14.984;2023-06-22T03:26:56;15.80;98.50
29093;DHT22;16167;48.768;14.984;2023-06-22T03:29:24;15.80;96.50
29093;DHT22;16167;48.768;14.984;2023-06-22T03:31:57;15.80;96.80
29093;DHT22;16167;48.768;14.984;2023-06-22T03:34:25;15.80;96.10
29093;DHT22;16167;48.768;14.984;2023-06-22T03:36:53;15.70;95.70
29093;DHT22;16167;48.768;14.984;2023-06-22T03:39:22;15.70;96.90
29093;DHT22;16167;48.768;14.984;2023-06-22T03:41:50;15.70;96.90
29093;DHT22;16167;48.768;14.984;2023-06-22T03:44:18;15.80;96.50
29093;DHT22;16167;48.768;14.984;2023-06-22T03:46:46;15.80;97.80
29093;DHT22;16167;48.768;14.984;2023-06-22T03:49:15;15.70;97.20
29093;DHT22;16167;48.768;14.984;2023-06-22T03:51:43;15.80;95.50
29093;DHT22;16167;48.768;14.984;2023-06-22T03:54:11;15.80;97.30
29093;DHT22;16167;48.768;14.984;2023-06-22T03:56:39;15.80;96.30
29093;DHT22;16167;48.768;14.984;2023-06-22T03:59:07;15.90;96.30
29093;DHT22;16167;48.768;14.984;2023-06-22T04:01:35;15.90;96.60
29093;DHT22;16167;48.768;14.984;2023-06-22T04:04:03;16.00;98.60
29093;DHT22;16167;48.768;14.984;2023-06-22T04:06:33;16.00;99.90
29093;DHT22;16167;48.768;14.984;2023-06-22T04:09:01;16.00;99.90
29093;DHT22;16167;48.768;14.984;2023-06-22T04:11:30;16.10;99.20
29093;DHT22;16167;48.768;14.984;2023-06-22T04:13:58;16.20;98.20
29093;DHT22;16167;48.768;14.984;2023-06-22T04:16:26;16.20;95.50
29093;DHT22;16167;48.768;14.984;2023-06-22T04:18:54;16.30;95.10
29093;DHT22;16167;48.768;14.984;2023-06-22T04:21:21;16.40;95.70
29093;DHT22;16167;48.768;14.984;2023-06-22T04:23:51;16.40;94.10
29093;DHT22;16167;48.768;14.984;2023-06-22T04:26:19;16.50;92.10
29093;DHT22;16167;48.768;14.984;2023-06-22T04:28:47;16.60;93.50
29093;DHT22;16167;48.768;14.984;2023-06-22T04:31:18;16.70;93.90
29093;DHT22;16167;48.768;14.984;2023-06-22T04:33:46;16.70;93.90
29093;DHT22;16167;48.768;14.984;2023-06-22T04:36:14;16.80;95.10
29093;DHT22;16167;48.768;14.984;2023-06-22T04:38:42;16.90;94.20
29093;DHT22;16167;48.768;14.984;2023-06-22T04:41:12;16.90;92.10
29093;DHT22;16167;48.768;14.984;2023-06-22T04:43:51;17.00;90.80
29093;DHT22;16167;48.768;14.984;2023-06-22T04:46:20;17.20;90.50
29093;DHT22;16167;48.768;14.984;2023-06-22T04:48:48;17.30;84.40
29093;DHT22;16167;48.768;14.984;2023-06-22T04:51:16;17.40;76.70
29093;DHT22;16167;48.768;14.984;2023-06-22T04:53:48;17.50;73.70
29093;DHT22;16167;48.768;14.984;2023-06-22T04:56:17;17.60;76.60
29093;DHT22;16167;48.768;14.984;2023-06-22T04:58:48;17.70;75.30
29093;DHT22;16167;48.768;14.984;2023-06-22T05:01:18;17.80;71.40
29093;DHT22;16167;48.768;14.984;2023-06-22T05:03:46;17.90;73.50
29093;DHT22;16167;48.768;14.984;2023-06-22T05:06:14;18.00;61.40
29093;DHT22;16167;48.768;14.984;2023-06-22T05:08:42;18.20;57.80
29093;DHT22;16167;48.768;14.984;2023-06-22T05:11:10;18.30;54.00
29093;DHT22;16167;48.768;14.984;2023-06-22T05:13:40;18.30;60.40
29093;DHT22;16167;48.768;14.984;2023-06-22T05:16:08;18.40;50.70
29093;DHT22;16167;48.768;14.984;2023-06-22T05:18:36;18.50;48.10
29093;DHT22;16167;48.768;14.984;2023-06-22T05:21:04;18.60;44.40
29093;DHT22;16167;48.768;14.984;2023-06-22T05:23:32;18.70;45.70
29093;DHT22;16167;48.768;14.984;2023-06-22T05:25:59;18.80;45.10
29093;DHT22;16167;48.768;14.984;2023-06-22T05:28:27;19.00;42.30
29093;DHT22;16167;48.768;14.984;2023-06-22T05:30:57;19.10;39.20
29093;DHT22;16167;48.768;14.984;2023-06-22T05:33:25;19.20;41.50
29093;DHT22;16167;48.768;14.984;2023-06-22T05:35:53;19.30;43.70
29093;DHT22;16167;48.768;14.984;2023-06-22T05:38:21;19.30;32.80
29093;DHT22;16167;48.768;14.984;2023-06-22T05:40:49;19.40;34.40
29093;DHT22;16167;48.768;14.984;2023-06-22T05:43:17;19.50;38.30
29093;DHT22;16167;48.768;14.984;2023-06-22T05:45:45;19.70;32.60
29093;DHT22;16167;48.768;14.984;2023-06-22T05:48:14;19.90;31.30
29093;DHT22;16167;48.768;14.984;2023-06-22T05:50:42;20.10;27.00
29093;DHT22;16167;48.768;14.984;2023-06-22T05:53:10;20.20;26.70
29093;DHT22;16167;48.768;14.984;2023-06-22T05:55:38;20.40;25.40
29093;DHT22;16167;48.768;14.984;2023-06-22T05:58:06;20.60;27.00
29093;DHT22;16167;48.768;14.984;2023-06-22T06:00:34;20.80;13.00
29093;DHT22;16167;48.768;14.984;2023-06-22T06:03:02;20.90;13.60
29093;DHT22;16167;48.768;14.984;2023-06-22T06:05:32;21.10;7.80
29093;DHT22;16167;48.768;14.984;2023-06-22T06:08:00;21.30;11.00
29093;DHT22;16167;48.768;14.984;2023-06-22T06:10:29;21.40;6.60
29093;DHT22;16167;48.768;14.984;2023-06-22T06:12:57;21.60;6.00
29093;DHT22;16167;48.768;14.984;2023-06-22T06:15:25;21.80;1.00
29093;DHT22;16167;48.768;14.984;2023-06-22T06:17:53;21.90;1.20
29093;DHT22;16167;48.768;14.984;2023-06-22T06:20:23;22.10;1.00
29093;DHT22;16167;48.768;14.984;2023-06-22T06:22:52;22.30;1.00
29093;DHT22;16167;48.768;14.984;2023-06-22T06:25:20;22.50;1.00
29093;DHT22;16167;48.768;14.984;2023-06-22T06:27:49;22.60;1.00
29093;DHT22;16167;48.768;14.984;2023-06-22T06:30:18;22.70;1.00
29093;DHT22;16167;48.768;14.984;2023-06-22T06:32:46;22.90;1.00
29093;DHT22;16167;48.768;14.984;2023-06-22T06:35:14;23.10;1.00
29093;DHT22;16167;48.768;14.984;2023-06-22T06:37:43;23.20;1.00
29093;DHT22;16167;48.768;14.984;2023-06-22T06:40:13;23.30;1.00
29093;DHT22;16167;48.768;14.984;2023-06-22T06:42:42;23.30;1.00
29093;DHT22;16167;48.768;14.984;2023-06-22T06:45:12;23.50;1.00
29093;DHT22;16167;48.768;14.984;2023-06-22T06:47:40;23.70;1.00
29093;DHT22;16167;48.768;14.984;2023-06-22T06:50:08;23.80;1.00
29093;DHT22;16167;48.768;14.984;2023-06-22T06:52:36;23.90;1.00
29093;DHT22;16167;48.768;14.984;2023-06-22T06:55:05;24.00;1.00
29093;DHT22;16167;48.768;14.984;2023-06-22T06:57:37;24.10;1.00
29093;DHT22;16167;48.768;14.984;2023-06-22T07:00:05;24.30;1.00
29093;DHT22;16167;48.768;14.984;2023-06-22T07:02:37;24.40;1.00
29093;DHT22;16167;48.768;14.984;2023-06-22T07:05:06;24.70;1.00
29093;DHT22;16167;48.768;14.984;2023-06-22T07:07:34;24.90;1.00
29093;DHT22;16167;48.768;14.984;2023-06-22T07:10:04;25.00;1.00
29093;DHT22;16167;48.768;14.984;2023-06-22T07:12:33;25.10;1.00
29093;DHT22;16167;48.768;14.984;2023-06-22T07:15:03;25.20;1.00
29093;DHT22;16167;48.768;14.984;2023-06-22T07:17:31;25.30;1.00
29093;DHT22;16167;48.768;14.984;2023-06-22T07:20:00;25.50;1.00
29093;DHT22;16167;48.768;14.984;2023-06-22T07:22:28;25.60;1.00
29093;DHT22;16167;48.768;14.984;2023-06-22T07:24:55;25.70;1.00
29093;DHT22;16167;48.768;14.984;2023-06-22T07:27:23;25.80;1.00
29093;DHT22;16167;48.768;14.984;2023-06-22T07:29:52;25.90;1.00
29093;DHT22;16167;48.768;14.984;2023-06-22T07:32:23;26.10;1.00
29093;DHT22;16167;48.768;14.984;2023-06-22T07:34:51;26.30;1.00
29093;DHT22;16167;48.768;14.984;2023-06-22T07:37:19;26.50;1.00
29093;DHT22;16167;48.768;14.984;2023-06-22T07:39:47;26.70;1.00
29093;DHT22;16167;48.768;14.984;2023-06-22T07:42:17;26.90;1.00
29093;DHT22;16167;48.768;14.984;2023-06-22T07:44:45;26.90;1.00
29093;DHT22;16167;48.768;14.984;2023-06-22T07:47:13;27.10;1.00
29093;DHT22;16167;48.768;14.984;2023-06-22T07:49:43;27.20;1.00
29093;DHT22;16167;48.768;14.984;2023-06-22T07:52:11;27.30;1.00
29093;DHT22;16167;48.768;14.984;2023-06-22T07:54:39;27.40;1.00
29093;DHT22;16167;48.768;14.984;2023-06-22T07:57:07;27.70;1.00
29093;DHT22;16167;48.768;14.984;2023-06-22T07:59:35;27.80;1.00
29093;DHT22;16167;48.768;14.984;2023-06-22T08:02:03;27.90;1.00
29093;DHT22;16167;48.768;14.984;2023-06-22T08:04:31;28.00;1.00
29093;DHT22;16167;48.768;14.984;2023-06-22T08:07:04;28.00;1.00
29093;DHT22;16167;48.768;14.984;2023-06-22T08:09:33;28.00;1.00
29093;DHT22;16167;48.768;14.984;2023-06-22T08:12:01;28.10;1.00
29093;DHT22;16167;48.768;14.984;2023-06-22T08:14:29;28.30;1.00
29093;DHT22;16167;48.768;14.984;2023-06-22T08:16:57;28.60;1.00
29093;DHT22;16167;48.768;14.984;2023-06-22T08:19:25;28.60;1.00
29093;DHT22;16167;48.768;14.984;2023-06-22T08:21:53;28.60;1.00
29093;DHT22;16167;48.768;14.984;2023-06-22T08:24:22;28.70;1.00
29093;DHT22;16167;48.768;14.984;2023-06-22T08:26:51;28.80;1.00
29093;DHT22;16167;48.768;14.984;2023-06-22T08:29:19;28.90;1.00
29093;DHT22;16167;48.768;14.984;2023-06-22T08:31:47;29.00;1.00
29093;DHT22;16167;48.768;14.984;2023-06-22T08:34:15;29.20;1.00
29093;DHT22;16167;48.768;14.984;2023-06-22T08:36:44;29.30;1.00
29093;DHT22;16167;48.768;14.984;2023-06-22T08:39:15;29.50;1.00
29093;DHT22;16167;48.768;14.984;2023-06-22T08:41:44;29.60;1.00
29093;DHT22;16167;48.768;14.984;2023-06-22T08:44:12;29.70;1.00
29093;DHT22;16167;48.768;14.984;2023-06-22T08:46:40;29.80;1.00
29093;DHT22;16167;48.768;14.984;2023-06-22T08:49:08;29.90;1.00
29093;DHT22;16167;48.768;14.984;2023-06-22T08:51:37;30.10;1.00
29093;DHT22;16167;48.768;14.984;2023-06-22T08:54:05;30.30;3.00
29093;DHT22;16167;48.768;14.984;2023-06-22T08:56:33;30.40;2.80
29093;DHT22;16167;48.768;14.984;2023-06-22T08:59:03;30.60;1.40
29093;DHT22;16167;48.768;14.984;2023-06-22T09:01:34;30.80;1.00
29093;DHT22;16167;48.768;14.984;2023-06-22T09:04:02;31.00;1.00
29093;DHT22;16167;48.768;14.984;2023-06-22T09:06:32;31.20;1.00
29093;DHT22;16167;48.768;14.984;2023-06-22T09:09:00;31.40;1.00
29093;DHT22;16167;48.768;14.984;2023-06-22T09:11:28;31.40;1.00
29093;DHT22;16167;48.768;14.984;2023-06-22T09:13:56;31.50;1.00
29093;DHT22;16167;48.768;14.984;2023-06-22T09:16:26;31.70;1.00
29093;DHT22;16167;48.768;14.984;2023-06-22T09:18:53;31.80;1.00
29093;DHT22;16167;48.768;14.984;2023-06-22T09:21:21;32.00;1.00
29093;DHT22;16167;48.768;14.984;2023-06-22T09:23:49;32.10;1.00
29093;DHT22;16167;48.768;14.984;2023-06-22T09:26:18;32.30;1.00
29093;DHT22;16167;48.768;14.984;2023-06-22T09:28:46;32.20;1.00
29093;DHT22;16167;48.768;14.984;2023-06-22T09:31:14;32.30;1.00
29093;DHT22;16167;48.768;14.984;2023-06-22T09:33:44;32.40;1.00
29093;DHT22;16167;48.768;14.984;2023-06-22T09:36:13;32.50;1.00
29093;DHT22;16167;48.768;14.984;2023-06-22T09:38:43;32.60;1.00
29093;DHT22;16167;48.768;14.984;2023-06-22T09:41:11;32.40;1.00
29093;DHT22;16167;48.768;14.984;2023-06-22T09:43:39;32.40;1.00
29093;DHT22;16167;48.768;14.984;2023-06-22T09:46:07;32.60;1.00
29093;DHT22;16167;48.768;14.984;2023-06-22T09:48:36;32.80;1.00
29093;DHT22;16167;48.768;14.984;2023-06-22T09:51:08;33.00;1.00
29093;DHT22;16167;48.768;14.984;2023-06-22T09:53:35;33.00;1.00
29093;DHT22;16167;48.768;14.984;2023-06-22T09:56:04;33.10;1.00
29093;DHT22;16167;48.768;14.984;2023-06-22T09:58:32;33.30;1.00
29093;DHT22;16167;48.768;14.984;2023-06-22T10:01:00;33.40;1.00
29093;DHT22;16167;48.768;14.984;2023-06-22T10:03:28;33.40;1.00
29093;DHT22;16167;48.768;14.984;2023-06-22T10:05:57;33.50;1.00
29093;DHT22;16167;48.768;14.984;2023-06-22T10:08:26;33.40;1.00
29093;DHT22;16167;48.768;14.984;2023-06-22T10:10:54;33.70;1.00
29093;DHT22;16167;48.768;14.984;2023-06-22T10:13:22;33.80;1.00
29093;DHT22;16167;48.768;14.984;2023-06-22T10:15:50;33.80;1.00
29093;DHT22;16167;48.768;14.984;2023-06-22T10:18:18;33.80;1.00
29093;DHT22;16167;48.768;14.984;2023-06-22T10:20:47;33.90;1.00
29093;DHT22;16167;48.768;14.984;2023-06-22T10:23:15;33.80;1.00
29093;DHT22;16167;48.768;14.984;2023-06-22T10:25:45;33.80;1.00
29093;DHT22;16167;48.768;14.984;2023-06-22T10:28:13;34.00;1.00
29093;DHT22;16167;48.768;14.984;2023-06-22T10:30:41;34.00;1.00
29093;DHT22;16167;48.768;14.984;2023-06-22T10:33:09;34.00;1.00
29093;DHT22;16167;48.768;14.984;2023-06-22T10:35:37;34.10;1.00
29093;DHT22;16167;48.768;14.984;2023-06-22T10:38:06;34.10;1.00
29093;DHT22;16167;48.768;14.984;2023-06-22T10:40:35;34.30;1.00
29093;DHT22;16167;48.768;14.984;2023-06-22T10:43:05;34.40;1.00
29093;DHT22;16167;48.768;14.984;2023-06-22T10:45:33;34.30;1.00
29093;DHT22;16167;48.768;14.984;2023-06-22T10:48:01;34.40;1.00
29093;DHT22;16167;48.768;14.984;2023-06-22T10:50:29;34.30;1.00
29093;DHT22;16167;48.768;14.984;2023-06-22T10:52:57;34.40;1.00
29093;DHT22;16167;48.768;14.984;2023-06-22T10:55:26;34.40;1.00
29093;DHT22;16167;48.768;14.984;2023-06-22T10:58:14;34.40;1.00
29093;DHT22;16167;48.768;14.984;2023-06-22T11:00:42;34.70;1.00
29093;DHT22;16167;48.768;14.984;2023-06-22T11:03:10;34.70;1.00
29093;DHT22;16167;48.768;14.984;2023-06-22T11:05:40;34.60;1.00
29093;DHT22;16167;48.768;14.984;2023-06-22T11:08:08;34.70;1.00
29093;DHT22;16167;48.768;14.984;2023-06-22T11:10:36;34.70;1.00
29093;DHT22;16167;48.768;14.984;2023-06-22T11:13:04;34.70;1.00
29093;DHT22;16167;48.768;14.984;2023-06-22T11:15:39;34.80;1.00
29093;DHT22;16167;48.768;14.984;2023-06-22T11:18:07;34.90;1.00
29093;DHT22;16167;48.768;14.984;2023-06-22T11:20:35;35.10;1.00
29093;DHT22;16167;48.768;14.984;2023-06-22T11:23:05;35.40;1.00
29093;DHT22;16167;48.768;14.984;2023-06-22T11:25:33;35.30;1.00
29093;DHT22;16167;48.768;14.984;2023-06-22T11:28:02;35.50;1.00
29093;DHT22;16167;48.768;14.984;2023-06-22T11:30:30;35.50;1.00
29093;DHT22;16167;48.768;14.984;2023-06-22T11:32:59;35.50;1.00
29093;DHT22;16167;48.768;14.984;2023-06-22T11:35:27;35.70;1.00
29093;DHT22;16167;48.768;14.984;2023-06-22T11:37:55;35.90;1.00
29093;DHT22;16167;48.768;14.984;2023-06-22T11:40:24;36.00;1.00
29093;DHT22;16167;48.768;14.984;2023-06-22T11:42:53;36.00;1.00
29093;DHT22;16167;48.768;14.984;2023-06-22T11:45:21;36.00;1.00
29093;DHT22;16167;48.768;14.984;2023-06-22T11:47:49;36.00;1.00
29093;DHT22;16167;48.768;14.984;2023-06-22T11:50:18;36.00;1.00
29093;DHT22;16167;48.768;14.984;2023-06-22T11:52:46;35.90;1.00
29093;DHT22;16167;48.768;14.984;2023-06-22T11:55:14;35.90;1.00
29093;DHT22;16167;48.768;14.984;2023-06-22T11:57:52;36.20;1.00
29093;DHT22;16167;48.768;14.984;2023-06-22T12:00:20;36.40;1.00
29093;DHT22;16167;48.768;14.984;2023-06-22T12:02:50;36.40;1.00
29093;DHT22;16167;48.768;14.984;2023-06-22T12:05:20;36.10;1.00
29093;DHT22;16167;48.768;14.984;2023-06-22T12:07:48;36.10;1.00
29093;DHT22;16167;48.768;14.984;2023-06-22T12:10:17;36.00;1.00
29093;DHT22;16167;48.768;14.984;2023-06-22T12:12:45;36.00;1.00
29093;DHT22;16167;48.768;14.984;2023-06-22T12:15:13;36.20;1.00
29093;DHT22;16167;48.768;14.984;2023-06-22T12:17:41;36.20;1.00
29093;DHT22;16167;48.768;14.984;2023-06-22T12:20:09;36.10;1.00
29093;DHT22;16167;48.768;14.984;2023-06-22T12:22:40;36.10;1.00
29093;DHT22;16167;48.768;14.984;2023-06-22T12:25:08;36.30;1.00
29093;DHT22;16167;48.768;14.984;2023-06-22T12:27:36;36.60;1.00
29093;DHT22;16167;48.768;14.984;2023-06-22T12:30:04;36.90;1.00
29093;DHT22;16167;48.768;14.984;2023-06-22T12:32:32;37.10;1.00
29093;DHT22;16167;48.768;14.984;2023-06-22T12:35:00;37.20;1.00
29093;DHT22;16167;48.768;14.984;2023-06-22T12:37:28;37.30;1.00
29093;DHT22;16167;48.768;14.984;2023-06-22T12:39:59;37.30;1.00
29093;DHT22;16167;48.768;14.984;2023-06-22T12:42:27;37.10;1.00
29093;DHT22;16167;48.768;14.984;2023-06-22T12:44:55;37.10;1.00
29093;DHT22;16167;48.768;14.984;2023-06-22T12:47:23;37.00;1.00
29093;DHT22;16167;48.768;14.984;2023-06-22T12:49:51;36.80;1.00
29093;DHT22;16167;48.768;14.984;2023-06-22T12:52:19;36.70;1.00
29093;DHT22;16167;48.768;14.984;2023-06-22T12:54:47;36.30;1.00
29093;DHT22;16167;48.768;14.984;2023-06-22T12:57:23;36.00;1.00
29093;DHT22;16167;48.768;14.984;2023-06-22T12:59:52;36.00;1.00
29093;DHT22;16167;48.768;14.984;2023-06-22T13:02:20;35.80;1.00
29093;DHT22;16167;48.768;14.984;2023-06-22T13:04:48;35.50;1.00
29093;DHT22;16167;48.768;14.984;2023-06-22T13:07:16;35.50;1.00
29093;DHT22;16167;48.768;14.984;2023-06-22T13:09:49;35.80;1.00
29093;DHT22;16167;48.768;14.984;2023-06-22T13:12:19;35.90;1.00
29093;DHT22;16167;48.768;14.984;2023-06-22T13:14:49;36.10;1.00
29093;DHT22;16167;48.768;14.984;2023-06-22T13:17:17;36.20;1.00
29093;DHT22;16167;48.768;14.984;2023-06-22T13:19:45;36.20;1.00
29093;DHT22;16167;48.768;14.984;2023-06-22T13:22:29;36.20;1.00
29093;DHT22;16167;48.768;14.984;2023-06-22T13:24:57;36.40;1.00
29093;DHT22;16167;48.768;14.984;2023-06-22T13:27:25;36.60;1.00
29093;DHT22;16167;48.768;14.984;2023-06-22T13:29:55;36.70;1.00
29093;DHT22;16167;48.768;14.984;2023-06-22T13:32:23;36.70;1.00
29093;DHT22;16167;48.768;14.984;2023-06-22T13:34:52;36.50;1.00
29093;DHT22;16167;48.768;14.984;2023-06-22T13:37:20;36.50;1.00
29093;DHT22;16167;48.768;14.984;2023-06-22T13:39:48;36.40;1.00
29093;DHT22;16167;48.768;14.984;2023-06-22T13:42:16;36.40;1.00
29093;DHT22;16167;48.768;14.984;2023-06-22T13:44:43;36.40;1.00
29093;DHT22;16167;48.768;14.984;2023-06-22T13:47:13;36.40;1.00
29093;DHT22;16167;48.768;14.984;2023-06-22T13:49:41;36.50;1.00
29093;DHT22;16167;48.768;14.984;2023-06-22T13:52:09;36.60;1.00
29093;DHT22;16167;48.768;14.984;2023-06-22T13:54:39;36.70;1.00
29093;DHT22;16167;48.768;14.984;2023-06-22T13:57:07;36.80;1.00
29093;DHT22;16167;48.768;14.984;2023-06-22T13:59:35;36.60;1.00
29093;DHT22;16167;48.768;14.984;2023-06-22T14:02:03;36.50;1.00
29093;DHT22;16167;48.768;14.984;2023-06-22T14:04:33;36.60;1.00
29093;DHT22;16167;48.768;14.984;2023-06-22T14:07:01;36.70;1.00
29093;DHT22;16167;48.768;14.984;2023-06-22T14:09:29;36.60;1.00
29093;DHT22;16167;48.768;14.984;2023-06-22T14:11:57;36.60;1.00
29093;DHT22;16167;48.768;14.984;2023-06-22T14:14:25;36.60;1.00
29093;DHT22;16167;48.768;14.984;2023-06-22T14:16:53;36.60;1.00
29093;DHT22;16167;48.768;14.984;2023-06-22T14:19:21;36.70;1.00
29093;DHT22;16167;48.768;14.984;2023-06-22T14:21:50;36.70;1.00
29093;DHT22;16167;48.768;14.984;2023-06-22T14:24:18;36.60;1.00
29093;DHT22;16167;48.768;14.984;2023-06-22T14:26:50;36.70;1.00
29093;DHT22;16167;48.768;14.984;2023-06-22T14:29:18;36.80;1.00
29093;DHT22;16167;48.768;14.984;2023-06-22T14:31:46;36.70;1.00
29093;DHT22;16167;48.768;14.984;2023-06-22T14:34:14;36.40;1.00
29093;DHT22;16167;48.768;14.984;2023-06-22T14:36:42;36.40;1.00
29093;DHT22;16167;48.768;14.984;2023-06-22T14:39:12;36.40;1.00
29093;DHT22;16167;48.768;14.984;2023-06-22T14:41:40;36.30;1.00
29093;DHT22;16167;48.768;14.984;2023-06-22T14:44:08;36.20;1.00
29093;DHT22;16167;48.768;14.984;2023-06-22T14:46:36;36.20;1.00
29093;DHT22;16167;48.768;14.984;2023-06-22T14:49:04;36.20;1.00
29093;DHT22;16167;48.768;14.984;2023-06-22T14:51:32;36.20;1.00
29093;DHT22;16167;48.768;14.984;2023-06-22T14:54:00;36.20;1.00
29093;DHT22;16167;48.768;14.984;2023-06-22T14:56:30;36.10;1.00
29093;DHT22;16167;48.768;14.984;2023-06-22T14:59:00;36.00;1.00
29093;DHT22;16167;48.768;14.984;2023-06-22T15:01:28;35.90;1.00
29093;DHT22;16167;48.768;14.984;2023-06-22T15:03:56;35.90;1.00
29093;DHT22;16167;48.768;14.984;2023-06-22T15:06:24;35.80;1.00
29093;DHT22;16167;48.768;14.984;2023-06-22T15:08:53;35.80;1.00
29093;DHT22;16167;48.768;14.984;2023-06-22T15:11:21;35.70;1.00
29093;DHT22;16167;48.768;14.984;2023-06-22T15:13:50;35.60;1.00
29093;DHT22;16167;48.768;14.984;2023-06-22T15:16:18;35.50;1.00
29093;DHT22;16167;48.768;14.984;2023-06-22T15:18:46;35.60;1.00
29093;DHT22;16167;48.768;14.984;2023-06-22T15:21:15;35.50;1.00
29093;DHT22;16167;48.768;14.984;2023-06-22T15:23:43;35.30;1.00
29093;DHT22;16167;48.768;14.984;2023-06-22T15:26:11;35.20;1.00
29093;DHT22;16167;48.768;14.984;2023-06-22T15:28:39;35.10;1.00
29093;DHT22;16167;48.768;14.984;2023-06-22T15:31:08;35.00;1.00
29093;DHT22;16167;48.768;14.984;2023-06-22T15:33:36;34.90;1.00